Aviation Digital Data Service (ADDS)

Output produced by METARs form (0738 UTC 26 May 2015)
found at http://aviationweather.gov/adds/metars/
 
KATL 260533Z 2606/2712 13007KT P6SM SCT006 BKN015 
     FM260800 14007KT P6SM OVC006 
     FM261500 15007KT P6SM OVC012 
     FM261700 16007KT P6SM -SHRA OVC025 
     TEMPO 2620/2624 3SM TSRA BR OVC015CB 
     FM270000 15006KT P6SM SCT030 BKN045 
     FM270600 12005KT P6SM BKN009